Time;durP1;ratioP1;P1;durP2;ratioP2;P2;SDS_P1;SDS_P2;PMS_P1;PMS_P2;Temp;Humidity;BMP_temperature;BMP_pressure;BME280_temperature;BME280_humidity;BME280_pressure;Samples;Min_cycle;Max_cycle;Signal;HPM_P1;HPM_P2
2022/03/29 00:00:12;;;;;;;17.98;10.75;;;7.30;99.90;;;;;;6267623;22;20020;-56
2022/03/29 00:02:39;;;;;;;18.92;11.57;;;7.30;99.90;;;;;;6267676;22;20054;-57
2022/03/29 00:05:05;;;;;;;20.35;11.90;;;7.30;99.90;;;;;;6267124;22;20019;-56
2022/03/29 00:07:31;;;;;;;21.92;12.75;;;7.30;99.90;;;;;;6239505;22;20027;-57
2022/03/29 00:09:57;;;;;;;23.05;12.13;;;7.30;99.90;;;;;;6238944;22;20016;-56
2022/03/29 00:12:22;;;;;;;18.98;11.15;;;7.30;99.90;;;;;;6268404;22;20042;-57
2022/03/29 00:14:48;;;;;;;19.75;11.73;;;7.30;99.90;;;;;;6267011;22;20038;-56
2022/03/29 00:17:14;;;;;;;22.60;11.68;;;7.50;99.90;;;;;;6240981;22;20024;-56
2022/03/29 00:19:39;;;;;;;19.90;12.30;;;7.20;99.90;;;;;;6267459;22;20016;-57
2022/03/29 00:22:05;;;;;;;20.48;11.77;;;7.20;99.90;;;;;;6239480;22;20030;-58
2022/03/29 00:24:30;;;;;;;18.63;11.55;;;7.20;99.90;;;;;;6267455;22;20013;-59
2022/03/29 00:26:56;;;;;;;22.08;12.18;;;7.20;99.90;;;;;;6266991;22;20027;-62
2022/03/29 00:29:22;;;;;;;20.73;11.93;;;7.50;99.90;;;;;;6240252;22;20015;-61
2022/03/29 00:31:48;;;;;;;19.10;11.82;;;7.60;99.90;;;;;;6266785;22;20038;-57
2022/03/29 00:34:13;;;;;;;29.58;13.38;;;7.20;99.90;;;;;;6267002;22;20431;-60
2022/03/29 00:36:40;;;;;;;24.30;13.18;;;7.60;99.90;;;;;;6263512;22;20019;-56
2022/03/29 00:39:05;;;;;;;19.90;12.15;;;7.80;99.90;;;;;;6266036;22;20514;-56
2022/03/29 00:41:32;;;;;;;22.40;13.13;;;7.20;99.90;;;;;;6267224;22;20099;-56
2022/03/29 00:43:58;;;;;;;20.17;12.35;;;7.30;99.90;;;;;;6266585;22;20011;-57
2022/03/29 00:46:24;;;;;;;18.90;12.25;;;7.20;99.90;;;;;;6266958;22;20065;-56
2022/03/29 00:48:50;;;;;;;17.80;11.70;;;7.30;99.90;;;;;;6266256;22;20020;-56
2022/03/29 00:51:16;;;;;;;22.48;12.05;;;7.30;99.90;;;;;;6267236;22;20023;-56
2022/03/29 00:53:42;;;;;;;26.55;13.95;;;7.30;99.90;;;;;;6267357;22;20050;-56
2022/03/29 00:56:08;;;;;;;22.13;12.80;;;7.20;99.90;;;;;;6266581;22;20019;-57
2022/03/29 00:58:35;;;;;;;23.00;14.32;;;7.20;99.90;;;;;;6239137;22;20331;-57
2022/03/29 01:01:02;;;;;;;26.33;14.65;;;7.20;99.90;;;;;;6267460;22;20092;-56
2022/03/29 01:03:30;;;;;;;21.88;13.38;;;7.10;99.90;;;;;;6266957;22;20329;-56
2022/03/29 01:05:56;;;;;;;24.67;13.68;;;7.20;99.90;;;;;;6266441;22;20454;-56
2022/03/29 01:08:24;;;;;;;22.42;14.07;;;7.10;99.90;;;;;;6266467;22;20020;-56
2022/03/29 01:10:51;;;;;;;25.85;14.82;;;7.60;99.90;;;;;;6239113;22;20120;-56
2022/03/29 01:13:18;;;;;;;23.20;13.52;;;7.20;99.90;;;;;;6267533;22;20548;-57
2022/03/29 01:15:45;;;;;;;26.90;14.40;;;7.10;99.90;;;;;;6239558;22;20130;-56
2022/03/29 01:18:12;;;;;;;24.40;14.90;;;7.10;99.90;;;;;;6266411;22;20020;-56
2022/03/29 01:20:40;;;;;;;27.50;14.45;;;7.10;99.90;;;;;;6266943;22;20016;-56
2022/03/29 01:23:07;;;;;;;23.15;14.32;;;7.10;99.90;;;;;;6266461;22;20065;-57
2022/03/29 01:25:43;;;;;;;27.27;15.15;;;7.10;99.90;;;;;;6267446;22;20011;-57
2022/03/29 01:28:10;;;;;;;23.00;14.27;;;7.10;99.90;;;;;;6267196;22;20340;-65
2022/03/29 01:30:35;;;;;;;26.35;15.57;;;7.10;99.90;;;;;;6266535;22;20517;-58
2022/03/29 01:33:06;;;;;;;27.10;14.05;;;7.10;99.90;;;;;;6239601;22;20114;-57
2022/03/29 01:35:32;;;;;;;30.58;15.55;;;7.10;99.90;;;;;;6266292;22;20443;-56
2022/03/29 01:37:58;;;;;;;26.70;13.48;;;7.00;99.90;;;;;;6266700;22;20016;-58
2022/03/29 01:40:25;;;;;;;20.92;13.45;;;7.00;99.90;;;;;;6266653;22;20468;-57
2022/03/29 01:42:54;;;;;;;29.83;16.05;;;7.00;99.90;;;;;;6266533;22;20066;-57
2022/03/29 01:45:25;;;;;;;26.10;13.85;;;7.00;99.90;;;;;;6266762;22;20055;-56
2022/03/29 01:47:51;;;;;;;20.70;13.23;;;7.00;99.90;;;;;;6265681;22;20077;-57
2022/03/29 01:50:17;;;;;;;26.50;14.18;;;7.00;99.90;;;;;;6266554;22;20016;-58
2022/03/29 01:52:45;;;;;;;29.27;14.93;;;7.00;99.90;;;;;;6239451;22;20402;-57
2022/03/29 01:55:12;;;;;;;29.52;14.25;;;7.00;99.90;;;;;;6266651;22;20012;-58
2022/03/29 01:57:38;;;;;;;23.65;13.88;;;7.00;99.90;;;;;;6265975;22;20031;-59
2022/03/29 02:02:51;;;;;;;24.42;14.18;;;7.00;99.90;;;;;;6266286;22;20034;-57
2022/03/29 02:05:17;;;;;;;24.13;15.00;;;7.00;99.90;;;;;;6238906;22;20452;-58
2022/03/29 02:07:44;;;;;;;25.05;14.60;;;7.00;99.90;;;;;;6238941;22;20015;-57
2022/03/29 02:10:10;;;;;;;26.42;13.95;;;7.10;99.90;;;;;;6265288;22;20027;-59
2022/03/29 02:12:35;;;;;;;24.98;15.45;;;7.00;99.90;;;;;;6266701;22;20019;-56
2022/03/29 02:15:03;;;;;;;23.77;14.13;;;6.90;99.90;;;;;;6239022;22;20099;-62
2022/03/29 02:17:29;;;;;;;27.45;15.85;;;6.90;99.90;;;;;;6267009;22;20020;-62
2022/03/29 02:19:55;;;;;;;35.38;16.30;;;6.90;99.90;;;;;;6266059;22;20026;-60
2022/03/29 02:22:20;;;;;;;33.58;17.10;;;6.90;99.90;;;;;;6266842;22;20427;-57
2022/03/29 02:24:46;;;;;;;29.50;17.70;;;6.90;99.90;;;;;;6266568;22;20362;-61
2022/03/29 02:27:11;;;;;;;32.95;15.93;;;7.60;99.90;;;;;;6266744;22;20366;-64
2022/03/29 02:29:37;;;;;;;42.70;17.33;;;6.90;99.90;;;;;;6238766;22;20445;-62
2022/03/29 02:32:03;;;;;;;29.20;16.27;;;6.90;99.90;;;;;;6267994;22;20023;-60
2022/03/29 02:34:29;;;;;;;31.25;16.23;;;6.80;99.90;;;;;;6268090;22;20012;-64
2022/03/29 02:36:55;;;;;;;28.67;16.50;;;6.80;99.90;;;;;;6267908;22;20483;-62
2022/03/29 02:39:21;;;;;;;30.48;15.70;;;6.80;99.90;;;;;;6267555;22;20074;-59
2022/03/29 02:41:46;;;;;;;24.83;13.57;;;6.80;99.90;;;;;;6267823;22;20155;-61
2022/03/29 02:44:12;;;;;;;23.80;14.80;;;6.80;99.90;;;;;;6268393;22;20019;-58
2022/03/29 02:46:38;;;;;;;29.60;15.32;;;6.70;99.90;;;;;;6268327;22;20069;-59
2022/03/29 02:49:03;;;;;;;24.25;14.63;;;6.70;99.90;;;;;;6241254;22;20077;-57
2022/03/29 02:51:29;;;;;;;25.33;15.05;;;6.70;99.90;;;;;;6268324;22;20460;-56
2022/03/29 02:53:55;;;;;;;26.02;14.85;;;6.80;99.90;;;;;;6241232;22;20512;-59
2022/03/29 02:56:20;;;;;;;28.05;16.02;;;6.70;99.90;;;;;;6268140;22;20019;-57
2022/03/29 02:58:46;;;;;;;24.55;13.90;;;6.80;99.90;;;;;;6267559;22;20026;-57
2022/03/29 03:01:12;;;;;;;25.98;15.55;;;6.80;99.90;;;;;;6267604;22;20030;-59
2022/03/29 03:03:37;;;;;;;28.05;15.35;;;6.80;99.90;;;;;;6268500;22;20303;-57
2022/03/29 03:06:03;;;;;;;22.90;13.20;;;6.80;99.90;;;;;;6267528;22;20019;-56
2022/03/29 03:08:30;;;;;;;27.80;14.65;;;6.80;99.90;;;;;;6267109;22;20350;-57
2022/03/29 03:10:56;;;;;;;26.40;14.95;;;7.50;99.90;;;;;;6268450;22;20035;-57
2022/03/29 03:13:21;;;;;;;27.67;13.93;;;6.80;99.90;;;;;;6268426;22;20339;-56
2022/03/29 03:15:47;;;;;;;22.08;14.63;;;6.80;99.90;;;;;;6267992;22;20517;-59
2022/03/29 03:18:13;;;;;;;27.25;14.57;;;6.80;99.90;;;;;;6267514;22;20015;-57
2022/03/29 03:20:39;;;;;;;25.55;14.60;;;6.80;99.90;;;;;;6240547;22;20530;-57
2022/03/29 03:23:05;;;;;;;30.08;14.43;;;6.80;99.90;;;;;;6267716;22;20015;-59
2022/03/29 03:25:31;;;;;;;23.60;14.57;;;6.80;99.90;;;;;;6267483;22;20042;-59
2022/03/29 03:27:56;;;;;;;27.27;14.82;;;7.00;99.90;;;;;;6267694;22;20103;-58
2022/03/29 03:30:22;;;;;;;25.88;13.65;;;7.10;99.90;;;;;;6267313;22;20532;-59
2022/03/29 03:32:48;;;;;;;26.33;14.43;;;6.80;99.90;;;;;;6267431;22;20030;-64
2022/03/29 03:35:14;;;;;;;22.50;14.73;;;6.80;99.90;;;;;;6267391;22;20019;-63
2022/03/29 03:37:40;;;;;;;24.85;14.15;;;6.80;99.90;;;;;;6268685;22;20023;-57
2022/03/29 03:40:09;;;;;;;27.85;13.80;;;6.70;99.90;;;;;;6267403;22;20024;-57
2022/03/29 03:42:37;;;;;;;33.63;15.77;;;6.70;99.90;;;;;;6266942;22;20024;-56
2022/03/29 03:45:04;;;;;;;27.48;14.90;;;6.70;99.90;;;;;;6267496;22;20762;-63
2022/03/29 03:47:30;;;;;;;22.02;14.10;;;6.70;99.90;;;;;;6267194;22;20434;-58
2022/03/29 03:49:57;;;;;;;27.55;15.70;;;6.70;99.90;;;;;;6264359;22;20459;-57
2022/03/29 03:52:23;;;;;;;26.42;14.27;;;6.80;99.90;;;;;;6239917;22;20487;-56
2022/03/29 03:54:48;;;;;;;24.13;14.73;;;6.80;99.90;;;;;;6267660;22;20037;-57
2022/03/29 03:57:14;;;;;;;24.83;13.05;;;6.80;99.90;;;;;;6268542;22;20497;-56
2022/03/29 03:59:40;;;;;;;25.98;13.95;;;7.10;99.90;;;;;;6266554;22;20466;-56
2022/03/29 04:02:06;;;;;;;26.45;15.40;;;6.80;99.90;;;;;;6267084;22;20019;-56
2022/03/29 04:04:31;;;;;;;24.15;13.52;;;6.80;99.90;;;;;;6267056;22;20016;-56
2022/03/29 04:06:57;;;;;;;30.77;15.10;;;6.80;99.90;;;;;;6267965;22;20504;-57
2022/03/29 04:09:24;;;;;;;31.83;14.75;;;6.90;99.90;;;;;;6267393;22;20016;-59
2022/03/29 04:11:50;;;;;;;23.40;13.73;;;6.90;99.90;;;;;;6239888;22;20027;-62
2022/03/29 04:14:16;;;;;;;36.63;16.92;;;6.90;99.90;;;;;;6267137;22;20477;-59
2022/03/29 04:16:41;;;;;;;28.45;15.75;;;6.90;99.90;;;;;;6267124;22;20023;-61
2022/03/29 04:19:07;;;;;;;24.80;15.40;;;7.00;99.90;;;;;;6267457;22;20409;-61
2022/03/29 04:21:33;;;;;;;25.48;14.60;;;7.00;99.90;;;;;;6267242;22;20096;-57
2022/03/29 04:23:59;;;;;;;30.25;15.23;;;7.00;99.90;;;;;;6267735;22;20396;-59
2022/03/29 04:26:24;;;;;;;26.80;14.88;;;7.00;99.90;;;;;;6267048;22;20027;-58
2022/03/29 04:28:50;;;;;;;27.75;15.60;;;6.90;99.90;;;;;;6267236;22;20073;-57
2022/03/29 04:31:16;;;;;;;25.63;14.68;;;7.00;99.90;;;;;;6266661;22;20020;-58
2022/03/29 04:33:44;;;;;;;29.38;14.57;;;7.00;99.90;;;;;;6267080;22;20020;-57
2022/03/29 04:36:09;;;;;;;27.63;16.70;;;7.00;99.90;;;;;;6267022;22;20109;-62
2022/03/29 04:38:35;;;;;;;29.17;16.90;;;7.00;99.90;;;;;;6267053;22;20078;-64
2022/03/29 04:41:01;;;;;;;30.52;15.93;;;6.90;99.90;;;;;;6267151;22;20119;-58
2022/03/29 04:43:27;;;;;;;32.28;16.08;;;6.90;99.90;;;;;;6267303;22;20028;-57
2022/03/29 04:45:52;;;;;;;28.15;14.18;;;6.90;99.90;;;;;;6267259;22;20016;-58
2022/03/29 04:48:18;;;;;;;31.92;16.00;;;7.00;99.90;;;;;;6267427;22;20443;-62
2022/03/29 04:50:44;;;;;;;23.10;14.45;;;7.00;99.90;;;;;;6239360;22;20103;-59
2022/03/29 04:53:10;;;;;;;27.13;15.18;;;7.00;99.90;;;;;;6239602;22;20022;-56
2022/03/29 04:55:35;;;;;;;27.50;15.82;;;7.00;99.90;;;;;;6266208;22;20046;-58
2022/03/29 04:58:02;;;;;;;30.90;15.63;;;6.90;99.90;;;;;;6266338;22;20022;-57
2022/03/29 05:00:28;;;;;;;28.55;16.05;;;6.90;99.90;;;;;;6266571;22;20392;-59
2022/03/29 05:02:53;;;;;;;27.38;15.45;;;6.90;99.90;;;;;;6267437;22;20381;-59
2022/03/29 05:05:19;;;;;;;32.97;17.92;;;6.90;99.90;;;;;;6262291;22;20099;-60
2022/03/29 05:07:46;;;;;;;22.70;14.98;;;6.90;99.90;;;;;;6264805;22;20015;-57
2022/03/29 05:10:14;;;;;;;28.00;15.68;;;6.90;99.90;;;;;;6264670;22;20015;-56
2022/03/29 05:12:43;;;;;;;27.58;15.55;;;7.00;99.90;;;;;;6266167;22;20019;-56
2022/03/29 05:15:10;;;;;;;28.52;15.40;;;7.10;99.90;;;;;;6264599;22;20026;-58
2022/03/29 05:17:36;;;;;;;34.92;16.98;;;6.80;99.90;;;;;;6265984;22;20026;-58
2022/03/29 05:20:06;;;;;;;34.08;16.23;;;6.90;99.90;;;;;;6265151;22;20019;-59
2022/03/29 05:22:31;;;;;;;28.25;15.50;;;6.90;99.90;;;;;;6237950;22;20643;-57
2022/03/29 05:24:58;;;;;;;29.30;14.95;;;6.90;99.90;;;;;;6265422;22;20156;-56
2022/03/29 05:27:23;;;;;;;27.90;16.67;;;6.90;99.90;;;;;;6265796;22;20020;-57
2022/03/29 05:29:49;;;;;;;30.50;15.60;;;7.10;99.90;;;;;;6264712;22;20092;-57
2022/03/29 05:32:18;;;;;;;29.80;16.58;;;6.90;99.90;;;;;;6265286;22;20443;-57
2022/03/29 05:34:45;;;;;;;28.85;15.88;;;6.90;99.90;;;;;;6265813;22;20324;-57
2022/03/29 05:37:11;;;;;;;28.58;16.58;;;7.00;99.90;;;;;;6264629;22;20026;-56
2022/03/29 05:39:37;;;;;;;24.73;15.60;;;6.90;99.90;;;;;;6265227;22;20023;-56
2022/03/29 05:42:03;;;;;;;25.48;14.80;;;6.90;99.90;;;;;;6264517;22;20318;-59
2022/03/29 05:44:29;;;;;;;30.00;16.75;;;7.00;99.90;;;;;;6264794;22;20023;-58
2022/03/29 05:49:39;;;;;;;27.67;15.43;;;7.30;99.90;;;;;;6266247;22;20030;-56
2022/03/29 05:52:05;;;;;;;27.73;15.43;;;7.00;99.90;;;;;;6266416;22;20027;-56
2022/03/29 05:54:31;;;;;;;32.10;17.45;;;7.00;99.90;;;;;;6267275;22;20016;-56
2022/03/29 05:56:56;;;;;;;34.55;16.45;;;7.00;99.90;;;;;;6266953;22;20023;-56
2022/03/29 05:59:22;;;;;;;26.92;15.05;;;7.00;99.90;;;;;;6240141;22;20431;-56
2022/03/29 06:01:50;;;;;;;29.67;16.10;;;7.00;99.90;;;;;;6240183;22;20026;-56
2022/03/29 06:04:17;;;;;;;29.55;15.88;;;7.20;99.90;;;;;;6266735;22;20028;-56
2022/03/29 06:06:45;;;;;;;27.02;15.38;;;7.10;99.90;;;;;;6240576;22;20089;-56
2022/03/29 06:09:10;;;;;;;33.70;18.10;;;7.10;99.90;;;;;;6269242;22;20008;-56
2022/03/29 06:11:37;;;;;;;26.40;16.08;;;7.10;99.90;;;;;;6242079;22;20532;-57
2022/03/29 06:14:02;;;;;;;28.90;15.93;;;7.10;99.90;;;;;;6268736;22;20133;-56
2022/03/29 06:16:28;;;;;;;31.00;16.35;;;7.20;99.90;;;;;;6268687;22;20148;-57
2022/03/29 06:18:54;;;;;;;28.60;15.35;;;7.30;99.90;;;;;;6269138;22;20119;-59
2022/03/29 06:21:21;;;;;;;30.88;17.00;;;7.20;99.90;;;;;;6269562;22;20015;-59
2022/03/29 06:23:47;;;;;;;28.50;16.92;;;7.20;99.90;;;;;;6269076;22;20354;-57
2022/03/29 06:26:13;;;;;;;32.30;17.00;;;7.30;99.90;;;;;;6238441;22;20024;-56
2022/03/29 06:28:39;;;;;;;32.13;18.30;;;7.30;99.90;;;;;;6267723;22;20447;-56
2022/03/29 06:31:04;;;;;;;30.05;16.77;;;7.30;99.90;;;;;;6267805;22;20012;-59
2022/03/29 06:33:30;;;;;;;29.17;16.98;;;7.30;99.90;;;;;;6268007;22;20015;-59
2022/03/29 06:35:55;;;;;;;35.70;18.75;;;7.40;99.90;;;;;;6268792;22;20058;-58
2022/03/29 06:38:22;;;;;;;31.08;17.70;;;7.30;99.90;;;;;;6267881;22;20016;-58
2022/03/29 06:40:48;;;;;;;27.95;16.17;;;7.40;99.90;;;;;;6267248;22;20030;-59
2022/03/29 06:43:15;;;;;;;27.05;15.63;;;7.40;99.90;;;;;;6267675;22;20346;-59
2022/03/29 06:45:41;;;;;;;27.85;18.00;;;7.40;99.90;;;;;;6268361;22;20027;-59
2022/03/29 06:48:07;;;;;;;33.80;18.63;;;7.40;99.90;;;;;;6268097;22;20073;-58
2022/03/29 06:50:35;;;;;;;33.20;17.52;;;7.40;99.90;;;;;;6239744;22;20015;-57
2022/03/29 06:53:01;;;;;;;30.35;17.30;;;7.50;99.90;;;;;;6240834;22;20035;-59
2022/03/29 06:55:28;;;;;;;27.30;15.65;;;7.50;99.90;;;;;;6267643;22;20130;-57
2022/03/29 06:57:54;;;;;;;31.08;18.52;;;7.60;99.90;;;;;;6268012;22;20023;-64
2022/03/29 07:00:21;;;;;;;31.27;16.98;;;7.60;99.90;;;;;;6268562;22;20385;-63
2022/03/29 07:02:48;;;;;;;36.70;17.88;;;7.60;99.90;;;;;;6268588;22;20557;-64
2022/03/29 07:05:14;;;;;;;30.73;16.92;;;7.70;99.90;;;;;;6267869;22;20466;-63
2022/03/29 07:07:41;;;;;;;26.13;15.95;;;7.70;99.90;;;;;;6240072;22;20051;-65
2022/03/29 07:12:58;;;;;;;31.20;15.60;;;7.90;99.90;;;;;;6267368;22;20027;-63
2022/03/29 07:15:24;;;;;;;28.33;16.67;;;7.80;99.90;;;;;;6267608;22;20022;-59
2022/03/29 07:17:51;;;;;;;37.50;18.67;;;7.80;99.90;;;;;;6267640;22;20018;-63
2022/03/29 07:20:19;;;;;;;34.25;16.85;;;7.90;99.90;;;;;;6240172;22;20028;-64
2022/03/29 07:22:45;;;;;;;37.28;18.90;;;8.00;99.90;;;;;;6267712;22;20019;-57
2022/03/29 07:25:11;;;;;;;45.45;23.27;;;8.10;99.90;;;;;;6268165;22;20015;-57
2022/03/29 07:27:38;;;;;;;38.05;22.42;;;8.10;99.90;;;;;;6267564;22;20019;-56
2022/03/29 07:30:05;;;;;;;43.03;20.90;;;8.20;99.90;;;;;;6241134;22;20020;-57
2022/03/29 07:32:31;;;;;;;36.63;20.67;;;8.50;99.90;;;;;;6267884;22;20622;-56
2022/03/29 07:34:57;;;;;;;31.30;19.40;;;8.50;99.90;;;;;;6268292;22;20469;-58
2022/03/29 07:37:23;;;;;;;34.70;18.73;;;8.60;99.90;;;;;;6268795;22;20016;-56
2022/03/29 07:39:53;;;;;;;40.40;19.92;;;8.70;99.90;;;;;;6267298;22;20107;-57
2022/03/29 07:42:21;;;;;;;47.78;20.83;;;9.20;99.90;;;;;;6267955;22;20324;-56
2022/03/29 07:44:49;;;;;;;34.10;20.67;;;9.70;99.90;;;;;;6268414;22;20089;-56
2022/03/29 07:47:17;;;;;;;34.80;19.17;;;9.00;99.90;;;;;;6266332;22;20045;-56
2022/03/29 07:49:43;;;;;;;31.55;18.60;;;9.20;99.90;;;;;;6267145;22;20012;-59
2022/03/29 07:52:09;;;;;;;36.38;17.98;;;9.50;99.90;;;;;;6267858;22;20070;-56
2022/03/29 07:54:35;;;;;;;37.47;16.40;;;9.40;99.90;;;;;;6268040;22;20347;-57
2022/03/29 07:57:01;;;;;;;40.97;18.95;;;9.60;99.90;;;;;;6266306;22;20020;-63
2022/03/29 07:59:27;;;;;;;30.35;15.65;;;9.60;99.90;;;;;;6240275;22;20035;-58
2022/03/29 08:01:54;;;;;;;29.88;15.20;;;9.60;99.90;;;;;;6268171;22;20023;-60
2022/03/29 08:04:21;;;;;;;24.52;15.38;;;9.60;99.90;;;;;;6267734;22;20538;-60
2022/03/29 08:06:46;;;;;;;24.58;13.80;;;9.70;99.90;;;;;;6267907;22;20027;-63
2022/03/29 08:09:14;;;;;;;24.08;13.52;;;9.70;99.90;;;;;;6267213;22;20015;-56
2022/03/29 08:11:40;;;;;;;26.35;13.20;;;10.00;99.90;;;;;;6267693;22;20016;-56
2022/03/29 08:14:06;;;;;;;21.55;13.88;;;10.10;99.90;;;;;;6240516;22;20055;-57
2022/03/29 08:16:33;;;;;;;23.27;13.57;;;10.00;99.90;;;;;;6268072;22;20108;-56
2022/03/29 08:19:00;;;;;;;30.02;13.15;;;10.20;99.90;;;;;;6241041;22;20465;-56
2022/03/29 08:24:10;;;;;;;24.63;13.00;;;10.40;99.90;;;;;;6268021;22;20039;-56
2022/03/29 08:26:36;;;;;;;29.35;13.18;;;10.20;99.90;;;;;;6239254;22;20020;-57
2022/03/29 08:29:02;;;;;;;29.75;13.55;;;10.30;99.90;;;;;;6267675;22;20051;-56
2022/03/29 08:31:27;;;;;;;30.45;14.85;;;10.40;99.90;;;;;;6267022;22;20077;-65
2022/03/29 08:33:53;;;;;;;27.25;13.57;;;10.50;99.90;;;;;;6236218;22;20019;-57
2022/03/29 08:36:19;;;;;;;29.33;13.73;;;10.40;99.90;;;;;;6267826;22;20015;-56
2022/03/29 08:38:44;;;;;;;26.73;12.65;;;10.60;99.90;;;;;;6239543;22;20016;-57
2022/03/29 08:41:11;;;;;;;24.63;12.93;;;10.90;99.90;;;;;;6267372;22;20051;-57
2022/03/29 08:43:37;;;;;;;27.17;14.90;;;11.10;99.90;;;;;;6265584;22;20400;-58
2022/03/29 08:46:02;;;;;;;19.92;12.27;;;11.20;99.90;;;;;;6266858;22;20020;-56
2022/03/29 08:48:29;;;;;;;25.75;13.40;;;11.20;99.90;;;;;;6266210;22;20417;-56
2022/03/29 08:50:57;;;;;;;26.02;13.38;;;11.30;99.90;;;;;;6266776;22;20035;-56
2022/03/29 08:53:23;;;;;;;26.02;13.75;;;11.40;99.90;;;;;;6266841;22;20020;-57
2022/03/29 08:55:50;;;;;;;21.65;12.73;;;11.10;99.90;;;;;;6266769;22;20015;-57
2022/03/29 08:58:17;;;;;;;25.02;12.65;;;11.00;99.90;;;;;;6267414;22;20056;-57
2022/03/29 09:00:46;;;;;;;28.63;12.45;;;10.80;99.90;;;;;;6267655;22;20079;-57
2022/03/29 09:03:14;;;;;;;27.30;11.60;;;10.60;99.90;;;;;;6266399;22;20046;-56
2022/03/29 09:05:40;;;;;;;25.95;12.57;;;10.70;99.90;;;;;;6240050;22;20016;-56
2022/03/29 09:08:09;;;;;;;22.10;11.05;;;11.00;99.90;;;;;;6265000;22;20153;-56
2022/03/29 09:10:41;;;;;;;23.83;11.43;;;11.20;99.90;;;;;;6263449;22;20020;-56
2022/03/29 09:13:17;;;;;;;24.15;11.32;;;11.40;99.90;;;;;;6262494;22;20435;-56
2022/03/29 09:15:43;;;;;;;27.52;10.77;;;11.50;99.90;;;;;;6263776;22;20022;-56
2022/03/29 09:18:09;;;;;;;24.02;11.27;;;11.40;99.90;;;;;;6262650;22;20028;-57
2022/03/29 09:20:36;;;;;;;28.88;11.75;;;11.70;99.90;;;;;;6262374;22;20069;-59
2022/03/29 09:23:03;;;;;;;22.23;10.40;;;12.00;99.90;;;;;;6263212;22;20110;-57
2022/03/29 09:25:38;;;;;;;21.35;9.98;;;11.80;99.90;;;;;;6263254;22;20027;-57
2022/03/29 09:28:10;;;;;;;26.70;9.70;;;12.10;99.90;;;;;;6262790;22;20015;-57
2022/03/29 09:30:53;;;;;;;19.33;9.55;;;11.90;99.90;;;;;;6262485;22;20023;-56
2022/03/29 09:33:30;;;;;;;24.70;9.60;;;12.00;99.90;;;;;;6262799;22;20458;-57
2022/03/29 09:36:05;;;;;;;25.85;9.23;;;12.40;99.90;;;;;;6263644;22;20016;-57
2022/03/29 09:38:42;;;;;;;19.90;9.23;;;12.60;99.90;;;;;;6262697;22;20026;-56
2022/03/29 09:41:26;;;;;;;20.55;9.68;;;12.80;99.90;;;;;;6262694;22;20349;-57
2022/03/29 09:44:03;;;;;;;;;;;13.00;99.90;;;;;;6259196;22;20028;-57
2022/03/29 09:46:29;;;;;;;20.85;8.65;;;13.10;99.90;;;;;;6262754;22;19968;-57
2022/03/29 09:49:00;;;;;;;24.02;8.93;;;13.00;99.90;;;;;;6263032;22;20012;-57
2022/03/29 09:51:29;;;;;;;18.02;8.27;;;13.00;99.90;;;;;;6262828;22;20015;-57
2022/03/29 09:53:58;;;;;;;24.30;9.95;;;13.00;99.90;;;;;;6235164;22;20433;-56
2022/03/29 09:56:28;;;;;;;22.30;9.50;;;13.50;99.90;;;;;;6262791;22;20102;-57
2022/03/29 09:59:16;;;;;;;19.70;8.35;;;14.00;99.90;;;;;;6262327;22;20022;-57
2022/03/29 10:02:00;;;;;;;17.52;7.15;;;14.30;99.90;;;;;;6263335;22;20055;-56
2022/03/29 10:04:30;;;;;;;22.60;8.32;;;14.70;99.90;;;;;;6263081;22;20024;-57
2022/03/29 10:06:58;;;;;;;14.38;7.82;;;14.70;99.90;;;;;;6261943;22;20023;-56
2022/03/29 10:09:27;;;;;;;17.27;7.65;;;14.90;99.90;;;;;;6262527;22;20031;-59
2022/03/29 10:12:05;;;;;;;17.73;7.90;;;14.50;99.90;;;;;;6262566;22;20027;-57
2022/03/29 10:14:46;;;;;;;23.40;10.38;;;14.40;99.90;;;;;;6261913;22;20095;-57
2022/03/29 10:17:15;;;;;;;17.75;8.20;;;13.90;99.90;;;;;;6263283;22;20069;-58
2022/03/29 10:19:44;;;;;;;12.50;7.22;;;14.50;99.90;;;;;;6263015;22;20019;-57
2022/03/29 10:22:12;;;;;;;17.83;8.82;;;14.90;99.90;;;;;;6261684;22;20028;-57
2022/03/29 10:24:38;;;;;;;20.75;8.85;;;14.80;99.90;;;;;;6263134;22;20026;-56
2022/03/29 10:27:04;;;;;;;19.17;7.85;;;14.40;99.90;;;;;;6262792;22;20639;-57
2022/03/29 10:29:30;;;;;;;28.38;9.48;;;14.60;99.90;;;;;;6262656;22;20016;-57
2022/03/29 10:32:00;;;;;;;15.90;6.88;;;14.10;99.90;;;;;;6263132;22;20019;-56
2022/03/29 10:34:31;;;;;;;15.48;7.85;;;14.00;99.90;;;;;;6261946;22;20132;-58
2022/03/29 10:37:11;;;;;;;18.17;7.30;;;14.20;99.90;;;;;;6261924;22;20019;-56
2022/03/29 10:39:54;;;;;;;13.65;6.78;;;13.70;99.90;;;;;;6261802;22;20058;-55
2022/03/29 10:42:26;;;;;;;17.75;6.60;;;13.60;99.90;;;;;;6262602;22;20023;-57
2022/03/29 10:45:23;;;;;;;18.88;6.38;;;13.00;99.90;;;;;;6260505;22;20023;-57
2022/03/29 10:48:00;;;;;;;13.18;7.45;;;13.40;99.90;;;;;;6262666;22;20012;-57
2022/03/29 10:50:53;;;;;;;15.15;7.40;;;13.50;99.90;;;;;;6263684;22;20024;-56
2022/03/29 10:53:42;;;;;;;22.20;8.00;;;12.90;99.90;;;;;;6265343;22;20135;-56
2022/03/29 10:56:17;;;;;;;16.42;5.82;;;13.30;99.90;;;;;;6263907;22;20031;-57
2022/03/29 10:59:01;;;;;;;17.20;6.53;;;13.50;99.90;;;;;;6264961;22;20023;-57
2022/03/29 11:01:27;;;;;;;;;;;13.80;99.90;;;;;;6265047;22;20026;-57
2022/03/29 11:04:00;;;;;;;24.02;6.38;;;13.90;99.90;;;;;;6266217;22;19927;-56
2022/03/29 11:06:27;;;;;;;12.82;5.63;;;14.40;99.90;;;;;;6264811;22;20024;-56
2022/03/29 11:09:02;;;;;;;19.33;5.47;;;14.70;99.90;;;;;;6238998;22;20023;-57
2022/03/29 11:11:40;;;;;;;15.88;6.93;;;14.60;99.90;;;;;;6266574;22;20019;-56
2022/03/29 11:14:32;;;;;;;13.40;5.45;;;14.10;99.90;;;;;;6266369;22;20061;-56
2022/03/29 11:17:09;;;;;;;18.02;6.53;;;14.70;99.90;;;;;;6238669;22;20035;-57
2022/03/29 11:19:46;;;;;;;17.70;6.30;;;15.00;99.90;;;;;;6265752;22;20027;-56
2022/03/29 11:22:34;;;;;;;18.85;5.78;;;15.20;99.90;;;;;;6265389;22;20065;-58
2022/03/29 11:25:05;;;;;;;13.82;5.72;;;14.40;99.90;;;;;;6264927;22;20052;-57
2022/03/29 11:27:33;;;;;;;15.50;5.15;;;14.00;99.90;;;;;;6264356;22;20051;-58
2022/03/29 11:30:02;;;;;;;15.43;5.45;;;14.10;99.90;;;;;;6264850;22;20022;-57
2022/03/29 11:32:28;;;;;;;15.32;5.60;;;14.60;99.90;;;;;;6265365;22;20020;-59
2022/03/29 11:34:56;;;;;;;18.33;5.43;;;14.20;99.90;;;;;;6265126;22;20015;-57
2022/03/29 11:37:43;;;;;;;15.10;6.07;;;14.50;99.90;;;;;;6264850;22;20401;-57
2022/03/29 11:40:12;;;;;;;13.90;5.05;;;14.40;99.90;;;;;;6264753;22;20015;-57
2022/03/29 11:42:45;;;;;;;19.35;6.25;;;14.60;99.90;;;;;;6262148;22;20030;-57
2022/03/29 11:45:12;;;;;;;13.35;5.70;;;14.50;99.90;;;;;;6265170;22;20105;-59
2022/03/29 11:47:39;;;;;;;15.73;4.43;;;14.80;99.90;;;;;;6264740;22;20103;-57
2022/03/29 11:50:06;;;;;;;13.38;5.45;;;15.00;99.90;;;;;;6233727;22;20110;-58
2022/03/29 11:52:36;;;;;;;16.20;5.70;;;14.50;99.90;;;;;;6264329;22;20027;-57
2022/03/29 11:55:15;;;;;;;10.75;4.47;;;14.50;99.90;;;;;;6263572;22;20016;-56
2022/03/29 11:57:40;;;;;;;15.50;5.60;;;14.30;99.90;;;;;;6263966;22;20019;-56
2022/03/29 12:00:27;;;;;;;13.23;4.80;;;14.10;99.90;;;;;;6264163;22;20101;-56
2022/03/29 12:02:54;;;;;;;10.95;5.32;;;13.90;99.90;;;;;;6263894;22;20036;-57
2022/03/29 12:05:27;;;;;;;16.50;4.18;;;14.40;99.90;;;;;;6264179;22;20385;-56
2022/03/29 12:08:04;;;;;;;15.18;5.82;;;14.90;99.90;;;;;;6238458;22;20019;-57
2022/03/29 12:10:34;;;;;;;18.73;5.97;;;14.20;99.90;;;;;;6264565;22;20015;-56
2022/03/29 12:13:00;;;;;;;16.13;5.82;;;14.50;99.90;;;;;;6262408;22;20089;-57
2022/03/29 12:15:25;;;;;;;16.58;6.38;;;14.70;99.90;;;;;;6264191;22;20016;-56
2022/03/29 12:20:48;;;;;;;17.20;6.32;;;14.70;99.90;;;;;;6242889;22;20030;-56
2022/03/29 12:23:16;;;;;;;13.88;5.55;;;14.70;99.90;;;;;;6263988;22;20024;-56
2022/03/29 12:25:43;;;;;;;16.13;6.07;;;14.60;99.90;;;;;;6263748;22;20102;-56
2022/03/29 12:28:10;;;;;;;14.40;5.93;;;14.90;99.90;;;;;;6263609;22;20441;-57
2022/03/29 12:30:36;;;;;;;11.43;5.80;;;14.40;99.90;;;;;;6264219;22;20089;-57
2022/03/29 12:33:01;;;;;;;14.43;6.40;;;14.70;99.90;;;;;;6263906;22;20500;-59
2022/03/29 12:35:30;;;;;;;12.90;6.15;;;15.40;99.90;;;;;;6263240;22;20346;-57
2022/03/29 12:38:06;;;;;;;14.63;6.32;;;15.40;99.90;;;;;;6262904;22;20112;-58
2022/03/29 12:40:32;;;;;;;13.88;6.00;;;14.90;99.90;;;;;;6264127;22;20031;-56
2022/03/29 12:43:08;;;;;;;19.08;5.97;;;15.10;99.90;;;;;;6263571;22;20031;-57
2022/03/29 12:45:36;;;;;;;20.33;6.60;;;14.80;99.90;;;;;;6263833;22;20117;-57
2022/03/29 12:48:03;;;;;;;20.15;7.63;;;14.60;99.90;;;;;;6261845;22;20097;-56
2022/03/29 12:50:30;;;;;;;18.58;7.57;;;14.50;99.90;;;;;;6234921;22;20027;-57
2022/03/29 12:53:09;;;;;;;15.38;7.35;;;14.50;99.90;;;;;;6262810;22;20019;-57